createdAt,value
2023-02-04T00:00:00.752Z,2.7
2023-02-04T00:04:00.486Z,2.7
2023-02-04T00:08:00.519Z,2.7
2023-02-04T00:12:00.495Z,2.7
2023-02-04T00:16:00.545Z,2.8
2023-02-04T00:20:00.510Z,2.9
2023-02-04T00:24:00.529Z,2.9
2023-02-04T00:28:00.607Z,3.0
2023-02-04T00:32:00.698Z,3.0
2023-02-04T00:36:00.521Z,3.1
2023-02-04T00:40:00.519Z,3.1
2023-02-04T00:44:00.536Z,3.1
2023-02-04T00:48:00.469Z,3.0
2023-02-04T00:52:00.501Z,2.7
2023-02-04T00:56:00.510Z,2.4
2023-02-04T01:00:00.497Z,2.2
2023-02-04T01:04:00.504Z,2.3
2023-02-04T01:08:00.522Z,2.2
2023-02-04T01:12:00.497Z,2.3
2023-02-04T01:16:00.690Z,2.4
2023-02-04T01:20:00.572Z,2.3
2023-02-04T01:24:00.479Z,2.1
2023-02-04T01:28:00.648Z,2.1
2023-02-04T01:32:00.673Z,2.1
2023-02-04T01:36:00.518Z,1.9
2023-02-04T01:40:00.517Z,1.9
2023-02-04T01:44:00.510Z,1.8
2023-02-04T01:48:00.502Z,1.8
2023-02-04T01:52:00.520Z,1.8
2023-02-04T01:56:00.515Z,1.7
2023-02-04T02:00:00.489Z,1.6
2023-02-04T02:04:00.515Z,1.7
2023-02-04T02:08:00.489Z,1.7
2023-02-04T02:12:00.503Z,1.8
2023-02-04T02:16:00.538Z,1.6
2023-02-04T02:20:00.490Z,1.7
2023-02-04T02:24:00.503Z,1.4
2023-02-04T02:28:00.540Z,1.5
2023-02-04T02:32:00.505Z,1.5
2023-02-04T02:36:00.497Z,1.6
2023-02-04T02:40:00.555Z,1.5
2023-02-04T02:44:00.485Z,1.5
2023-02-04T02:48:00.507Z,1.4
2023-02-04T02:52:00.486Z,1.3
2023-02-04T02:56:00.513Z,1.4
2023-02-04T03:00:00.486Z,1.6
2023-02-04T03:04:00.498Z,1.7
2023-02-04T03:08:00.513Z,1.7
2023-02-04T03:12:00.585Z,1.6
2023-02-04T03:16:00.520Z,1.4
2023-02-04T03:20:00.526Z,1.2
2023-02-04T03:24:00.467Z,1.1
2023-02-04T03:28:00.592Z,1.2
2023-02-04T03:32:00.611Z,1.1
2023-02-04T03:36:00.501Z,0.9
2023-02-04T03:40:00.468Z,0.9
2023-02-04T03:44:00.479Z,0.8
2023-02-04T03:48:00.512Z,1.0
2023-02-04T03:52:00.469Z,0.8
2023-02-04T03:56:00.508Z,0.7
2023-02-04T04:00:00.460Z,0.6
2023-02-04T04:04:00.482Z,0.5
2023-02-04T04:08:00.525Z,0.5
2023-02-04T04:12:00.519Z,0.3
2023-02-04T04:16:00.588Z,0.3
2023-02-04T04:20:00.537Z,0.3
2023-02-04T04:24:00.488Z,0.3
2023-02-04T04:28:00.603Z,0.4
2023-02-04T04:32:00.587Z,0.5
2023-02-04T04:36:00.504Z,0.6
2023-02-04T04:40:00.492Z,0.5
2023-02-04T04:44:00.506Z,0.4
2023-02-04T04:48:00.500Z,0.3
2023-02-04T04:52:00.478Z,0.4
2023-02-04T04:56:00.518Z,0.3
2023-02-04T05:00:00.487Z,0.2
2023-02-04T05:04:00.490Z,0.1
2023-02-04T05:08:00.514Z,0.1
2023-02-04T05:12:00.510Z,0.2
2023-02-04T05:16:00.632Z,0.3
2023-02-04T05:20:00.576Z,0.3
2023-02-04T05:24:00.528Z,0.4
2023-02-04T05:28:00.572Z,0.4
2023-02-04T05:32:00.582Z,0.4
2023-02-04T05:36:00.547Z,0.5
2023-02-04T05:40:00.480Z,0.3
2023-02-04T05:44:00.560Z,0.2
2023-02-04T05:48:00.517Z,0.2
2023-02-04T05:52:00.494Z,0.2
2023-02-04T05:56:00.542Z,0.2
2023-02-04T06:00:00.498Z,0.3
2023-02-04T06:04:00.639Z,0.2
2023-02-04T06:08:00.499Z,0.0
2023-02-04T06:12:00.518Z,0.1
2023-02-04T06:16:00.495Z,-0.1
2023-02-04T06:20:00.551Z,-0.2
2023-02-04T06:24:00.499Z,-0.1
2023-02-04T06:28:00.558Z,-0.3
2023-02-04T06:32:00.631Z,-0.4
2023-02-04T06:36:00.493Z,-0.4
2023-02-04T06:40:00.525Z,-0.4
2023-02-04T06:44:00.498Z,-0.5
2023-02-04T06:48:00.520Z,-0.5
2023-02-04T06:52:00.510Z,-0.5
2023-02-04T06:56:00.499Z,-0.5
2023-02-04T07:00:00.508Z,-0.6
2023-02-04T07:04:00.514Z,-0.6
2023-02-04T07:08:00.504Z,-0.6
2023-02-04T07:12:00.498Z,-0.7
2023-02-04T07:16:00.729Z,-0.8
2023-02-04T07:20:00.493Z,-0.6
2023-02-04T07:24:00.538Z,-0.6
2023-02-04T07:28:00.606Z,-0.5
2023-02-04T07:32:00.683Z,-0.3
2023-02-04T07:36:00.522Z,-0.4
2023-02-04T07:40:00.476Z,-0.4
2023-02-04T07:44:00.489Z,-0.3
2023-02-04T07:48:00.495Z,-0.3
2023-02-04T07:52:00.496Z,0.0
2023-02-04T07:56:00.511Z,0.0
2023-02-04T08:00:00.456Z,0.1
2023-02-04T08:04:00.485Z,0.2
2023-02-04T08:08:00.475Z,0.4
2023-02-04T08:12:00.468Z,0.7
2023-02-04T08:16:00.533Z,0.7
2023-02-04T08:20:00.489Z,0.9
2023-02-04T08:24:00.477Z,1.0
2023-02-04T08:28:00.539Z,1.1
2023-02-04T08:32:00.610Z,1.1
2023-02-04T08:36:00.513Z,1.2
2023-02-04T08:40:00.515Z,1.4
2023-02-04T08:44:00.481Z,1.5
2023-02-04T08:48:00.503Z,1.5
2023-02-04T08:52:00.531Z,1.5
2023-02-04T08:56:00.511Z,1.7
2023-02-04T09:00:00.551Z,1.9
2023-02-04T09:04:00.507Z,2.1
2023-02-04T09:08:00.551Z,2.1
2023-02-04T09:12:00.545Z,2.1
2023-02-04T09:16:00.640Z,2.1
2023-02-04T09:20:00.541Z,2.8
2023-02-04T09:24:00.512Z,2.9
2023-02-04T09:28:00.588Z,2.9
2023-02-04T09:32:00.749Z,2.7
2023-02-04T09:36:00.512Z,2.7
2023-02-04T09:40:00.522Z,2.7
2023-02-04T09:44:00.509Z,3.0
2023-02-04T09:48:00.523Z,3.2
2023-02-04T09:52:00.561Z,3.0
2023-02-04T09:56:00.496Z,3.1
2023-02-04T10:00:00.501Z,3.7
2023-02-04T10:04:00.539Z,3.7
2023-02-04T10:08:00.540Z,3.7
2023-02-04T10:12:00.501Z,3.3
2023-02-04T10:16:00.497Z,3.2
2023-02-04T10:20:00.513Z,3.4
2023-02-04T10:24:00.480Z,3.5
2023-02-04T10:28:00.574Z,3.4
2023-02-04T10:32:00.548Z,3.2
2023-02-04T10:36:00.488Z,3.3
2023-02-04T10:40:00.549Z,3.4
2023-02-04T10:44:00.515Z,3.4
2023-02-04T10:48:00.491Z,3.5
2023-02-04T10:52:00.508Z,3.5
2023-02-04T10:56:00.508Z,3.6
2023-02-04T11:00:00.542Z,3.7
2023-02-04T11:04:00.513Z,3.8
2023-02-04T11:08:00.523Z,3.9
2023-02-04T11:12:00.501Z,3.9
2023-02-04T11:16:00.538Z,3.8
2023-02-04T11:20:00.512Z,3.4
2023-02-04T11:24:00.503Z,3.3
2023-02-04T11:28:00.624Z,3.4
2023-02-04T11:32:00.599Z,3.4
2023-02-04T11:36:00.495Z,3.8
2023-02-04T11:40:00.470Z,3.8
2023-02-04T11:44:00.526Z,3.7
2023-02-04T11:48:00.503Z,4.0
2023-02-04T11:52:00.507Z,3.9
2023-02-04T11:56:00.538Z,3.9
2023-02-04T12:00:00.524Z,3.8
2023-02-04T12:04:00.621Z,3.8
2023-02-04T12:08:00.481Z,3.8
2023-02-04T12:12:00.516Z,4.0
2023-02-04T12:16:00.618Z,4.1
2023-02-04T12:20:00.530Z,4.1
2023-02-04T12:24:00.503Z,5.0
2023-02-04T12:28:00.607Z,4.3
2023-02-04T12:32:00.626Z,4.3
2023-02-04T12:36:00.541Z,4.3
2023-02-04T12:40:00.517Z,4.2
2023-02-04T12:44:00.534Z,4.2
2023-02-04T12:48:00.574Z,4.1
2023-02-04T12:52:00.514Z,4.0
2023-02-04T12:56:00.565Z,4.0
2023-02-04T13:00:00.593Z,4.0
2023-02-04T13:04:00.500Z,4.0
2023-02-04T13:08:00.535Z,4.0
2023-02-04T13:12:00.515Z,4.0
2023-02-04T13:16:00.590Z,4.0
2023-02-04T13:20:00.588Z,4.0
2023-02-04T13:24:00.486Z,4.0
2023-02-04T13:28:00.596Z,4.0
2023-02-04T13:32:00.492Z,4.0
2023-02-04T13:36:00.479Z,4.0
2023-02-04T13:40:00.516Z,4.0
2023-02-04T13:44:00.474Z,4.0
2023-02-04T13:48:00.511Z,4.0
2023-02-04T13:52:00.472Z,4.0
2023-02-04T13:56:00.505Z,4.0
2023-02-04T14:00:00.493Z,4.0
2023-02-04T14:04:00.521Z,4.0
2023-02-04T14:08:00.482Z,4.0
2023-02-04T14:12:00.470Z,4.0
2023-02-04T14:16:00.525Z,4.5
2023-02-04T14:20:00.493Z,4.4
2023-02-04T14:24:00.493Z,4.4
2023-02-04T14:28:00.585Z,4.0
2023-02-04T14:32:00.519Z,3.8
2023-02-04T14:36:00.473Z,3.4
2023-02-04T14:40:00.500Z,3.4
2023-02-04T14:44:00.498Z,3.1
2023-02-04T14:48:00.506Z,3.1
2023-02-04T14:52:00.502Z,3.1
2023-02-04T14:56:00.533Z,3.2
2023-02-04T15:00:00.509Z,3.2
2023-02-04T15:04:00.524Z,3.1
2023-02-04T15:08:00.501Z,3.0
2023-02-04T15:12:00.524Z,2.9
2023-02-04T15:16:00.496Z,2.7
2023-02-04T15:20:00.544Z,2.7
2023-02-04T15:24:00.481Z,2.6
2023-02-04T15:28:00.636Z,2.7
2023-02-04T15:32:00.597Z,2.8
2023-02-04T15:36:00.506Z,2.7
2023-02-04T15:40:00.529Z,2.7
2023-02-04T15:44:00.493Z,2.7
2023-02-04T15:48:00.514Z,2.7
2023-02-04T15:52:00.490Z,2.7
2023-02-04T15:56:00.526Z,2.7
2023-02-04T16:00:00.486Z,2.7
2023-02-04T16:04:00.502Z,2.0
2023-02-04T16:08:00.512Z,2.0
2023-02-04T16:12:00.502Z,1.7
2023-02-04T16:16:00.543Z,1.5
2023-02-04T16:20:00.500Z,1.3
2023-02-04T16:24:00.478Z,1.3
2023-02-04T16:28:00.531Z,1.3
2023-02-04T16:32:00.485Z,1.2
2023-02-04T16:36:00.480Z,1.0
2023-02-04T16:40:00.512Z,0.8
2023-02-04T16:44:00.483Z,0.8
2023-02-04T16:48:00.481Z,0.7
2023-02-04T16:52:00.504Z,0.5
2023-02-04T16:56:00.469Z,0.6
2023-02-04T17:00:00.505Z,0.3
2023-02-04T17:04:00.503Z,0.3
2023-02-04T17:08:00.530Z,0.3
2023-02-04T17:12:00.456Z,0.2
2023-02-04T17:16:00.947Z,0.2
2023-02-04T17:20:00.652Z,0.1
2023-02-04T17:24:00.471Z,0.2
2023-02-04T17:28:00.575Z,0.1
2023-02-04T17:32:00.481Z,0.0
2023-02-04T17:36:00.481Z,0.0
2023-02-04T17:40:00.502Z,-0.1
2023-02-04T17:44:00.473Z,-0.1
2023-02-04T17:48:00.470Z,-0.4
2023-02-04T17:52:00.499Z,-0.5
2023-02-04T17:56:00.471Z,-0.6
2023-02-04T18:00:00.475Z,-0.7
2023-02-04T18:04:00.468Z,-0.8
2023-02-04T18:08:00.494Z,-1.0
2023-02-04T18:12:00.476Z,-1.2
2023-02-04T18:16:00.606Z,-1.3
2023-02-04T18:20:00.502Z,-1.5
2023-02-04T18:24:01.346Z,-1.7
2023-02-04T18:28:00.512Z,-1.7
2023-02-04T18:32:00.664Z,-1.9
2023-02-04T18:36:00.478Z,-1.9
2023-02-04T18:40:00.485Z,-1.9
2023-02-04T18:44:00.497Z,-2.1
2023-02-04T18:48:00.462Z,-2.2
2023-02-04T18:52:00.788Z,-2.4
2023-02-04T18:56:00.473Z,-2.4
2023-02-04T19:00:00.480Z,-2.5
2023-02-04T19:04:00.478Z,-2.4
2023-02-04T19:08:00.470Z,-2.4
2023-02-04T19:12:00.484Z,-2.4
2023-02-04T19:16:00.468Z,-2.4
2023-02-04T19:20:00.512Z,-2.4
2023-02-04T19:24:00.489Z,-2.4
2023-02-04T19:28:00.604Z,-2.5
2023-02-04T19:32:00.464Z,-2.4
2023-02-04T19:36:00.502Z,-2.3
2023-02-04T19:40:00.480Z,-2.2
2023-02-04T19:44:00.466Z,-2.2
2023-02-04T19:48:00.506Z,-2.2
2023-02-04T19:52:00.487Z,-2.3
2023-02-04T19:56:00.525Z,-2.4
2023-02-04T20:00:00.506Z,-2.4
2023-02-04T20:04:01.267Z,-2.4
2023-02-04T20:08:00.489Z,-2.7
2023-02-04T20:12:00.575Z,-2.6
2023-02-04T20:16:00.582Z,-2.7
2023-02-04T20:20:00.506Z,-2.7
2023-02-04T20:24:00.509Z,-2.7
2023-02-04T20:28:00.549Z,-2.7
2023-02-04T20:32:00.501Z,-2.8
2023-02-04T20:36:00.462Z,-2.9
2023-02-04T20:40:00.512Z,-3.0
2023-02-04T20:44:00.491Z,-3.0
2023-02-04T20:48:00.513Z,-3.0
2023-02-04T20:52:00.509Z,-3.0
2023-02-04T20:56:00.488Z,-3.1
2023-02-04T21:00:00.494Z,-3.2
2023-02-04T21:04:00.457Z,-3.2
2023-02-04T21:08:00.481Z,-3.3
2023-02-04T21:12:00.474Z,-3.6
2023-02-04T21:16:00.545Z,-3.7
2023-02-04T21:20:00.482Z,-3.8
2023-02-04T21:24:00.476Z,-3.9
2023-02-04T21:28:00.573Z,-3.7
2023-02-04T21:32:00.515Z,-3.9
2023-02-04T21:36:00.460Z,-4.1
2023-02-04T21:40:00.716Z,-4.0
2023-02-04T21:44:00.456Z,-4.0
2023-02-04T21:48:00.505Z,-4.3
2023-02-04T21:52:00.476Z,-4.3
2023-02-04T21:56:00.521Z,-4.3
2023-02-04T22:00:00.478Z,-4.3
2023-02-04T22:04:00.539Z,-4.3
2023-02-04T22:08:00.471Z,-3.9
2023-02-04T22:12:00.498Z,-3.9
2023-02-04T22:16:00.550Z,-4.1
2023-02-04T22:20:00.497Z,-4.3
2023-02-04T22:24:00.483Z,-4.3
2023-02-04T22:28:00.494Z,-4.3
2023-02-04T22:32:00.495Z,-4.3
2023-02-04T22:36:00.466Z,-4.3
2023-02-04T22:40:00.494Z,-4.4
2023-02-04T22:44:00.464Z,-4.4
2023-02-04T22:48:00.498Z,-4.3
2023-02-04T22:52:00.500Z,-4.4
2023-02-04T22:56:00.491Z,-4.4
2023-02-04T23:00:00.488Z,-4.4
2023-02-04T23:04:00.470Z,-4.3
2023-02-04T23:08:00.500Z,-4.1
2023-02-04T23:12:00.500Z,-3.9
2023-02-04T23:16:00.546Z,-3.9
2023-02-04T23:20:00.507Z,-3.9
2023-02-04T23:24:00.504Z,-3.9
2023-02-04T23:28:00.604Z,-3.9
2023-02-04T23:32:00.479Z,-3.9
2023-02-04T23:36:00.474Z,-4.0
2023-02-04T23:40:00.472Z,-4.0
2023-02-04T23:44:00.465Z,-4.0
2023-02-04T23:48:00.463Z,-4.1
2023-02-04T23:52:00.502Z,-4.1
2023-02-04T23:56:00.480Z,-3.9
